createdAt,value
2024-05-09T00:01:39.434Z,5.90
2024-05-09T00:04:10.096Z,5.83
2024-05-09T00:06:40.712Z,5.79
2024-05-09T00:09:11.356Z,5.76
2024-05-09T00:11:42.279Z,5.72
2024-05-09T00:14:13.178Z,5.69
2024-05-09T00:16:44.022Z,5.68
2024-05-09T00:19:14.799Z,5.67
2024-05-09T00:21:45.453Z,5.64
2024-05-09T00:24:16.179Z,5.65
2024-05-09T00:26:46.856Z,5.65
2024-05-09T00:29:17.540Z,5.62
2024-05-09T00:31:48.438Z,5.59
2024-05-09T00:34:19.389Z,5.53
2024-05-09T00:36:50.249Z,5.47
2024-05-09T00:39:21.117Z,5.45
2024-05-09T00:41:51.818Z,5.45
2024-05-09T00:44:22.790Z,5.44
2024-05-09T00:46:55.393Z,5.44
2024-05-09T00:49:27.900Z,5.39
2024-05-09T00:51:59.635Z,5.38
2024-05-09T00:54:31.782Z,5.35
2024-05-09T00:57:02.865Z,5.28
2024-05-09T00:59:34.772Z,5.23
2024-05-09T01:02:07.187Z,5.19
2024-05-09T01:04:38.016Z,5.14
2024-05-09T01:07:09.066Z,5.11
2024-05-09T01:09:39.658Z,5.07
2024-05-09T01:12:10.741Z,5.05
2024-05-09T01:14:41.465Z,5.03
2024-05-09T01:17:12.630Z,5.04
2024-05-09T01:19:41.906Z,5.04
2024-05-09T01:22:12.630Z,4.99
2024-05-09T01:24:43.402Z,4.98
2024-05-09T01:27:14.220Z,4.91
2024-05-09T01:29:44.968Z,4.81
2024-05-09T01:32:15.714Z,4.80
2024-05-09T01:34:46.513Z,4.78
2024-05-09T01:37:17.381Z,4.70
2024-05-09T01:39:48.012Z,4.66
2024-05-09T01:42:18.639Z,4.68
2024-05-09T01:44:49.422Z,4.71
2024-05-09T01:47:20.235Z,4.74
2024-05-09T01:49:51.130Z,4.77
2024-05-09T01:52:21.865Z,4.78
2024-05-09T01:54:52.485Z,4.79
2024-05-09T01:57:23.302Z,4.79
2024-05-09T01:59:54.250Z,4.77
2024-05-09T02:02:25.165Z,4.75
2024-05-09T02:04:55.922Z,4.74
2024-05-09T02:07:27.507Z,4.72
2024-05-09T02:09:58.033Z,4.70
2024-05-09T02:12:28.805Z,4.67
2024-05-09T02:14:59.602Z,4.64
2024-05-09T02:17:30.559Z,4.61
2024-05-09T02:20:05.962Z,4.57
2024-05-09T02:22:36.786Z,4.54
2024-05-09T02:25:08.247Z,4.51
2024-05-09T02:27:38.805Z,4.46
2024-05-09T02:30:18.753Z,4.42
2024-05-09T02:32:56.884Z,4.40
2024-05-09T02:35:28.297Z,4.36
2024-05-09T02:37:59.037Z,4.33
2024-05-09T02:40:36.609Z,4.29
2024-05-09T02:43:11.121Z,4.24
2024-05-09T02:45:42.793Z,4.20
2024-05-09T02:48:14.360Z,4.17
2024-05-09T02:50:45.449Z,4.15
2024-05-09T02:53:16.528Z,4.14
2024-05-09T02:55:47.461Z,4.12
2024-05-09T02:58:18.381Z,4.07
2024-05-09T03:00:49.250Z,4.04
2024-05-09T03:03:20.104Z,4.00
2024-05-09T03:05:49.692Z,3.94
2024-05-09T03:08:20.586Z,3.89
2024-05-09T03:10:51.550Z,3.88
2024-05-09T03:13:22.541Z,3.86
2024-05-09T03:15:53.257Z,3.83
2024-05-09T03:18:23.742Z,3.80
2024-05-09T03:20:54.495Z,3.80
2024-05-09T03:23:25.019Z,3.74
2024-05-09T03:25:55.717Z,3.61
2024-05-09T03:28:26.480Z,3.49
2024-05-09T03:30:57.318Z,3.44
2024-05-09T03:33:28.622Z,3.42
2024-05-09T03:35:59.365Z,3.43
2024-05-09T03:38:30.168Z,3.45
2024-05-09T03:41:00.738Z,3.45
2024-05-09T03:43:31.340Z,3.45
2024-05-09T03:46:01.894Z,3.36
2024-05-09T03:48:36.950Z,3.28
2024-05-09T03:51:09.345Z,3.27
2024-05-09T03:53:40.372Z,3.30
2024-05-09T03:56:11.328Z,3.34
2024-05-09T03:58:42.074Z,3.36
2024-05-09T04:01:12.843Z,3.41
2024-05-09T04:03:44.047Z,3.45
2024-05-09T04:06:20.444Z,3.51
2024-05-09T04:08:51.288Z,3.53
2024-05-09T04:11:22.226Z,3.58
2024-05-09T04:13:53.281Z,3.61
2024-05-09T04:16:23.803Z,3.67
2024-05-09T04:18:54.914Z,3.86
2024-05-09T04:21:28.218Z,4.16
2024-05-09T04:23:58.900Z,4.49
2024-05-09T04:26:29.716Z,4.83
2024-05-09T04:29:00.965Z,5.15
2024-05-09T04:31:31.706Z,5.47
2024-05-09T04:34:03.072Z,5.81
2024-05-09T04:36:34.014Z,6.08
2024-05-09T04:39:04.557Z,6.04
2024-05-09T04:41:35.132Z,5.99
2024-05-09T04:44:06.012Z,5.96
2024-05-09T04:46:37.020Z,6.00
2024-05-09T04:49:07.791Z,6.17
2024-05-09T04:51:38.528Z,6.60
2024-05-09T04:54:15.656Z,7.07
2024-05-09T04:56:52.164Z,7.58
2024-05-09T04:59:23.596Z,8.11
2024-05-09T05:01:54.386Z,8.67
2024-05-09T05:04:25.723Z,9.14
2024-05-09T05:06:54.759Z,9.57
2024-05-09T05:09:25.612Z,9.73
2024-05-09T05:11:56.289Z,9.72
2024-05-09T05:14:27.246Z,9.73
2024-05-09T05:16:56.502Z,9.70
2024-05-09T05:19:27.934Z,9.63
2024-05-09T05:21:58.945Z,9.56
2024-05-09T05:24:30.400Z,9.47
2024-05-09T05:27:01.232Z,9.39
2024-05-09T05:29:32.712Z,9.31
2024-05-09T05:32:03.396Z,9.26
2024-05-09T05:34:32.801Z,9.24
2024-05-09T05:37:03.766Z,9.19
2024-05-09T05:39:34.228Z,9.20
2024-05-09T05:42:05.336Z,9.21
2024-05-09T05:44:36.084Z,9.25
2024-05-09T05:47:07.691Z,9.31
2024-05-09T05:49:38.484Z,9.37
2024-05-09T05:52:08.040Z,9.42
2024-05-09T05:54:38.702Z,9.47
2024-05-09T05:57:09.363Z,9.56
2024-05-09T05:59:40.364Z,9.66
2024-05-09T06:02:11.341Z,9.76
2024-05-09T06:04:42.704Z,9.88
2024-05-09T06:07:13.348Z,9.99
2024-05-09T06:09:47.495Z,10.12
2024-05-09T06:12:19.021Z,10.24
2024-05-09T06:14:49.895Z,10.37
2024-05-09T06:17:20.466Z,10.52
2024-05-09T06:19:51.654Z,10.70
2024-05-09T06:22:22.231Z,10.88
2024-05-09T06:24:52.724Z,11.05
2024-05-09T06:27:23.665Z,11.22
2024-05-09T06:29:54.197Z,11.41
2024-05-09T06:32:24.803Z,11.62
2024-05-09T06:34:54.091Z,11.81
2024-05-09T06:37:24.627Z,11.97
2024-05-09T06:39:54.009Z,12.14
2024-05-09T06:42:24.563Z,12.28
2024-05-09T06:44:55.191Z,12.42
2024-05-09T06:47:26.373Z,12.53
2024-05-09T06:49:55.512Z,12.64
2024-05-09T06:52:26.099Z,12.74
2024-05-09T06:54:56.633Z,12.85
2024-05-09T06:57:29.697Z,12.96
2024-05-09T07:00:00.688Z,13.02
2024-05-09T07:02:31.921Z,13.10
2024-05-09T07:05:02.702Z,13.17
2024-05-09T07:07:34.001Z,13.25
2024-05-09T07:10:06.278Z,13.32
2024-05-09T07:12:38.342Z,13.38
2024-05-09T07:15:09.601Z,13.42
2024-05-09T07:17:40.540Z,13.50
2024-05-09T07:20:23.002Z,13.57
2024-05-09T07:22:58.455Z,13.64
2024-05-09T07:25:29.096Z,13.70
2024-05-09T07:27:59.884Z,13.77
2024-05-09T07:30:34.015Z,13.83
2024-05-09T07:33:06.471Z,13.89
2024-05-09T07:35:37.520Z,13.89
2024-05-09T07:38:08.462Z,13.89
2024-05-09T07:40:41.325Z,13.92
2024-05-09T07:43:12.749Z,13.99
2024-05-09T07:45:52.226Z,14.06
2024-05-09T07:50:00.969Z,14.15
2024-05-09T07:53:53.275Z,14.28
2024-05-09T07:56:26.853Z,14.34
2024-05-09T07:58:57.803Z,14.37
2024-05-09T08:01:27.311Z,14.43
2024-05-09T08:03:56.491Z,14.49
2024-05-09T08:06:27.458Z,14.51
2024-05-09T08:09:00.877Z,14.56
2024-05-09T08:11:35.573Z,14.63
2024-05-09T08:14:06.170Z,14.68
2024-05-09T08:16:35.263Z,14.74
2024-05-09T08:19:05.992Z,14.77
2024-05-09T08:21:36.803Z,14.82
2024-05-09T08:24:07.909Z,14.83
2024-05-09T08:26:38.641Z,14.85
2024-05-09T08:29:07.666Z,14.87
2024-05-09T08:31:40.300Z,14.93
2024-05-09T08:34:11.800Z,15.00
2024-05-09T08:36:42.471Z,15.01
2024-05-09T08:39:13.114Z,15.03
2024-05-09T08:41:49.638Z,15.11
2024-05-09T08:44:21.174Z,15.15
2024-05-09T08:46:53.579Z,15.21
2024-05-09T08:49:25.663Z,15.31
2024-05-09T08:51:56.489Z,15.40
2024-05-09T08:54:27.354Z,15.52
2024-05-09T08:56:58.935Z,15.63
2024-05-09T08:59:35.524Z,15.74
2024-05-09T09:02:07.094Z,15.88
2024-05-09T09:04:41.352Z,16.01
2024-05-09T09:07:12.245Z,16.13
2024-05-09T09:09:46.462Z,16.18
2024-05-09T09:12:17.243Z,16.18
2024-05-09T09:14:47.950Z,16.21
2024-05-09T09:17:17.456Z,16.23
2024-05-09T09:19:47.977Z,16.27
2024-05-09T09:22:19.413Z,16.38
2024-05-09T09:24:50.004Z,16.47
2024-05-09T09:27:22.826Z,16.54
2024-05-09T09:29:53.388Z,16.44
2024-05-09T09:32:30.281Z,16.35
2024-05-09T09:35:02.094Z,16.37
2024-05-09T09:37:35.731Z,16.34
2024-05-09T09:40:12.922Z,16.38
2024-05-09T09:42:44.860Z,16.49
2024-05-09T09:45:16.042Z,16.61
2024-05-09T09:47:48.289Z,16.72
2024-05-09T09:50:27.354Z,16.91
2024-05-09T09:53:04.553Z,17.08
2024-05-09T09:55:36.510Z,17.16
2024-05-09T09:58:10.729Z,17.21
2024-05-09T10:00:43.562Z,17.27
2024-05-09T10:03:14.382Z,17.36
2024-05-09T10:05:47.372Z,17.45
2024-05-09T10:08:19.720Z,17.52
2024-05-09T10:10:50.763Z,17.52
2024-05-09T10:13:21.763Z,17.42
2024-05-09T10:15:54.752Z,17.37
2024-05-09T10:18:36.740Z,17.35
2024-05-09T10:21:17.624Z,17.33
2024-05-09T10:23:58.849Z,17.36
2024-05-09T10:26:36.345Z,17.42
2024-05-09T10:29:14.998Z,17.48
2024-05-09T10:31:46.988Z,17.49
2024-05-09T10:34:21.796Z,17.54
2024-05-09T10:36:55.741Z,17.53
2024-05-09T10:39:27.600Z,17.46
2024-05-09T10:41:58.112Z,17.44
2024-05-09T10:44:29.343Z,17.46
2024-05-09T10:47:00.006Z,17.46
2024-05-09T10:49:31.153Z,17.51
2024-05-09T10:52:04.449Z,17.60
2024-05-09T10:54:39.618Z,17.72
2024-05-09T10:57:10.243Z,17.80
2024-05-09T10:59:42.814Z,17.89
2024-05-09T11:02:13.763Z,17.99
2024-05-09T11:04:45.379Z,17.98
2024-05-09T11:07:17.570Z,17.97
2024-05-09T11:09:48.784Z,18.02
2024-05-09T11:12:22.047Z,18.12
2024-05-09T11:14:57.310Z,18.23
2024-05-09T11:17:28.032Z,18.28
2024-05-09T11:20:00.200Z,18.25
2024-05-09T11:22:35.348Z,18.25
2024-05-09T11:25:06.936Z,18.26
2024-05-09T11:27:40.663Z,18.40
2024-05-09T11:30:27.021Z,18.56
2024-05-09T11:33:02.258Z,18.73
2024-05-09T11:35:33.109Z,18.84
2024-05-09T11:38:03.874Z,18.94
2024-05-09T11:40:34.985Z,19.09
2024-05-09T11:43:06.492Z,19.19
2024-05-09T11:45:37.310Z,19.22
2024-05-09T11:48:08.910Z,19.20
2024-05-09T11:50:39.629Z,19.15
2024-05-09T11:53:10.130Z,19.15
2024-05-09T11:55:40.611Z,19.13
2024-05-09T11:58:12.187Z,19.00
2024-05-09T12:00:42.945Z,18.90
2024-05-09T12:03:13.978Z,18.86
2024-05-09T12:05:45.073Z,18.86
2024-05-09T12:08:15.774Z,18.83
2024-05-09T12:10:46.879Z,18.83
2024-05-09T12:13:17.843Z,18.77
2024-05-09T12:15:48.578Z,18.69
2024-05-09T12:18:19.234Z,18.69
2024-05-09T12:20:49.860Z,18.69
2024-05-09T12:23:20.450Z,18.63
2024-05-09T12:25:51.467Z,18.59
2024-05-09T12:28:22.974Z,18.64
2024-05-09T12:30:53.693Z,18.68
2024-05-09T12:33:24.327Z,18.74
2024-05-09T12:35:55.413Z,18.83
2024-05-09T12:38:25.923Z,18.83
2024-05-09T12:40:56.629Z,18.81
2024-05-09T12:43:27.430Z,18.87
2024-05-09T12:45:59.244Z,19.00
2024-05-09T12:48:30.014Z,19.15
2024-05-09T12:51:00.690Z,19.23
2024-05-09T12:53:31.542Z,19.25
2024-05-09T12:56:03.874Z,19.24
2024-05-09T12:58:35.666Z,19.31
2024-05-09T13:01:06.824Z,19.36
2024-05-09T13:03:37.746Z,19.36
2024-05-09T13:06:08.994Z,19.32
2024-05-09T13:08:39.713Z,19.36
2024-05-09T13:11:10.655Z,19.32
2024-05-09T13:13:41.304Z,19.28
2024-05-09T13:16:11.855Z,19.22
2024-05-09T13:18:43.954Z,19.15
2024-05-09T13:21:14.652Z,19.12
2024-05-09T13:23:45.466Z,19.13
2024-05-09T13:26:16.326Z,19.16
2024-05-09T13:28:46.968Z,19.15
2024-05-09T13:31:17.529Z,19.16
2024-05-09T13:33:48.611Z,19.17
2024-05-09T13:36:19.303Z,19.21
2024-05-09T13:38:49.834Z,19.23
2024-05-09T13:41:20.562Z,19.27
2024-05-09T13:43:51.159Z,19.32
2024-05-09T13:46:22.463Z,19.43
2024-05-09T13:48:53.388Z,19.59
2024-05-09T13:51:24.078Z,19.84
2024-05-09T13:53:56.525Z,20.06
2024-05-09T13:56:27.239Z,20.16
2024-05-09T13:58:57.925Z,20.17
2024-05-09T14:01:28.523Z,20.19
2024-05-09T14:03:59.419Z,20.26
2024-05-09T14:06:30.342Z,20.28
2024-05-09T14:09:00.997Z,20.27
2024-05-09T14:11:31.989Z,20.29
2024-05-09T14:14:02.737Z,20.33
2024-05-09T14:16:34.055Z,20.46
2024-05-09T14:19:04.931Z,20.82
2024-05-09T14:21:35.586Z,21.20
2024-05-09T14:24:07.200Z,21.52
2024-05-09T14:26:37.894Z,21.88
2024-05-09T14:29:08.543Z,22.32
2024-05-09T14:31:39.670Z,22.64
2024-05-09T14:34:10.906Z,22.79
2024-05-09T14:36:41.708Z,22.99
2024-05-09T14:39:12.303Z,23.28
2024-05-09T14:41:43.404Z,23.46
2024-05-09T14:44:13.999Z,23.42
2024-05-09T14:46:45.249Z,23.30
2024-05-09T14:49:15.998Z,23.53
2024-05-09T14:51:49.708Z,23.82
2024-05-09T14:54:20.504Z,24.10
2024-05-09T14:56:52.064Z,24.26
2024-05-09T14:59:22.717Z,24.31
2024-05-09T15:01:53.601Z,24.33
2024-05-09T15:04:24.465Z,24.16
2024-05-09T15:06:56.507Z,23.82
2024-05-09T15:09:27.246Z,23.64
2024-05-09T15:11:58.002Z,23.49
2024-05-09T15:14:28.643Z,23.13
2024-05-09T15:16:59.927Z,22.80
2024-05-09T15:19:31.841Z,22.52
2024-05-09T15:22:02.743Z,22.27
2024-05-09T15:24:33.809Z,22.04
2024-05-09T15:27:04.683Z,21.81
2024-05-09T15:29:35.223Z,21.67
2024-05-09T15:32:06.392Z,21.60
2024-05-09T15:34:37.208Z,21.54
2024-05-09T15:37:08.455Z,21.46
2024-05-09T15:39:39.341Z,21.43
2024-05-09T15:42:10.421Z,21.36
2024-05-09T15:44:40.999Z,21.28
2024-05-09T15:47:11.771Z,21.20
2024-05-09T15:49:42.770Z,21.22
2024-05-09T15:52:13.868Z,21.45
2024-05-09T15:54:44.588Z,21.67
2024-05-09T15:57:15.497Z,21.55
2024-05-09T15:59:46.291Z,21.45
2024-05-09T16:02:17.800Z,21.31
2024-05-09T16:04:48.827Z,21.16
2024-05-09T16:07:20.162Z,21.11
2024-05-09T16:09:50.690Z,21.07
2024-05-09T16:12:21.192Z,21.05
2024-05-09T16:14:52.285Z,20.99
2024-05-09T16:17:23.171Z,20.97
2024-05-09T16:19:54.515Z,21.00
2024-05-09T16:22:25.197Z,20.99
2024-05-09T16:24:55.835Z,20.97
2024-05-09T16:27:27.182Z,20.94
2024-05-09T16:30:03.952Z,21.01
2024-05-09T16:32:36.098Z,21.06
2024-05-09T16:35:09.941Z,21.33
2024-05-09T16:37:40.677Z,21.65
2024-05-09T16:40:22.004Z,21.97
2024-05-09T16:43:00.893Z,22.28
2024-05-09T16:45:31.743Z,22.35
2024-05-09T16:48:03.139Z,22.19
2024-05-09T16:50:35.843Z,21.92
2024-05-09T16:53:08.306Z,21.73
2024-05-09T16:55:39.143Z,21.50
2024-05-09T16:58:12.084Z,21.38
2024-05-09T17:00:44.130Z,21.29
2024-05-09T17:03:16.630Z,21.11
2024-05-09T17:05:48.424Z,20.86
2024-05-09T17:08:20.210Z,20.51
2024-05-09T17:10:51.197Z,20.16
2024-05-09T17:13:22.552Z,19.82
2024-05-09T17:15:53.360Z,19.71
2024-05-09T17:18:24.318Z,19.88
2024-05-09T17:20:55.038Z,20.13
2024-05-09T17:23:25.758Z,20.25
2024-05-09T17:25:56.722Z,20.29
2024-05-09T17:28:27.839Z,20.40
2024-05-09T17:30:58.597Z,20.56
2024-05-09T17:33:29.367Z,20.63
2024-05-09T17:36:00.574Z,20.70
2024-05-09T17:38:32.201Z,20.73
2024-05-09T17:41:02.773Z,20.66
2024-05-09T17:43:38.863Z,20.60
2024-05-09T17:46:09.694Z,20.63
2024-05-09T17:48:40.570Z,20.50
2024-05-09T17:51:11.212Z,20.40
2024-05-09T17:53:42.107Z,20.22
2024-05-09T17:56:12.908Z,20.13
2024-05-09T17:58:43.695Z,19.96
2024-05-09T18:01:14.551Z,19.72
2024-05-09T18:03:47.070Z,19.33
2024-05-09T18:06:18.127Z,18.95
2024-05-09T18:08:49.152Z,18.70
2024-05-09T18:11:21.612Z,18.51
2024-05-09T18:13:53.999Z,18.28
2024-05-09T18:16:28.567Z,18.09
2024-05-09T18:18:59.490Z,17.93
2024-05-09T18:21:30.556Z,17.75
2024-05-09T18:24:01.635Z,17.57
2024-05-09T18:26:32.873Z,17.35
2024-05-09T18:29:04.289Z,17.15
2024-05-09T18:31:34.911Z,16.96
2024-05-09T18:34:06.517Z,16.78
2024-05-09T18:36:37.381Z,16.58
2024-05-09T18:39:08.102Z,16.39
2024-05-09T18:41:38.782Z,16.20
2024-05-09T18:44:07.932Z,16.00
2024-05-09T18:46:38.878Z,15.80
2024-05-09T18:49:09.603Z,15.61
2024-05-09T18:51:40.312Z,15.42
2024-05-09T18:54:10.748Z,15.19
2024-05-09T18:56:42.877Z,14.95
2024-05-09T18:59:13.418Z,14.74
2024-05-09T19:01:44.125Z,14.51
2024-05-09T19:04:18.128Z,14.31
2024-05-09T19:06:49.059Z,14.09
2024-05-09T19:09:19.635Z,13.91
2024-05-09T19:11:50.252Z,13.74
2024-05-09T19:14:20.954Z,13.59
2024-05-09T19:16:51.624Z,13.43
2024-05-09T19:19:24.066Z,13.28
2024-05-09T19:21:54.904Z,13.14
2024-05-09T19:24:25.642Z,13.00
2024-05-09T19:26:56.812Z,12.85
2024-05-09T19:29:27.372Z,12.69
2024-05-09T19:31:58.328Z,12.54
2024-05-09T19:34:29.018Z,12.41
2024-05-09T19:36:59.891Z,12.28
2024-05-09T19:39:30.681Z,12.14
2024-05-09T19:41:59.929Z,11.97
2024-05-09T19:44:30.732Z,11.78
2024-05-09T19:47:01.414Z,11.66
2024-05-09T19:49:32.365Z,11.56
2024-05-09T19:52:03.139Z,11.46
2024-05-09T19:54:32.476Z,11.36
2024-05-09T19:57:03.103Z,11.20
2024-05-09T19:59:32.440Z,11.10
2024-05-09T20:02:03.146Z,11.00
2024-05-09T20:04:34.239Z,10.90
2024-05-09T20:07:03.388Z,10.77
2024-05-09T20:09:34.047Z,10.66
2024-05-09T20:12:05.294Z,10.58
2024-05-09T20:14:53.015Z,10.53
2024-05-09T20:17:23.707Z,10.41
2024-05-09T20:19:54.632Z,10.33
2024-05-09T20:22:25.226Z,10.25
2024-05-09T20:24:55.930Z,10.19
2024-05-09T20:27:26.690Z,10.10
2024-05-09T20:29:57.756Z,10.03
2024-05-09T20:32:28.708Z,9.94
2024-05-09T20:34:59.418Z,9.84
2024-05-09T20:37:29.936Z,9.76
2024-05-09T20:40:00.937Z,9.67
2024-05-09T20:42:34.407Z,9.60
2024-05-09T20:45:05.361Z,9.53
2024-05-09T20:47:36.186Z,9.47
2024-05-09T20:50:19.749Z,9.43
2024-05-09T20:52:54.710Z,9.38
2024-05-09T20:55:26.450Z,9.32
2024-05-09T20:57:57.744Z,9.25
2024-05-09T21:00:35.467Z,9.17
2024-05-09T21:03:11.458Z,9.06
2024-05-09T21:05:42.948Z,8.99
2024-05-09T21:08:13.849Z,8.93
2024-05-09T21:10:44.705Z,8.85
2024-05-09T21:13:15.540Z,8.81
2024-05-09T21:15:46.511Z,8.75
2024-05-09T21:18:17.345Z,8.70
2024-05-09T21:20:47.762Z,8.64
2024-05-09T21:23:18.552Z,8.59
2024-05-09T21:25:49.063Z,8.51
2024-05-09T21:28:19.808Z,8.44
2024-05-09T21:30:49.282Z,8.38
2024-05-09T21:33:20.154Z,8.31
2024-05-09T21:35:50.827Z,8.26
2024-05-09T21:38:21.425Z,8.19
2024-05-09T21:40:52.535Z,8.12
2024-05-09T21:43:23.722Z,8.06
2024-05-09T21:45:53.135Z,8.01
2024-05-09T21:48:23.859Z,7.95
2024-05-09T21:50:54.460Z,7.89
2024-05-09T21:53:25.102Z,7.84
2024-05-09T21:55:55.655Z,7.79
2024-05-09T21:58:26.733Z,7.75
2024-05-09T22:00:57.472Z,7.70
2024-05-09T22:03:28.273Z,7.63
2024-05-09T22:05:59.182Z,7.58
2024-05-09T22:08:29.799Z,7.55
2024-05-09T22:11:00.496Z,7.51
2024-05-09T22:13:31.963Z,7.46
2024-05-09T22:16:03.572Z,7.39
2024-05-09T22:18:34.435Z,7.33
2024-05-09T22:21:05.195Z,7.31
2024-05-09T22:23:35.972Z,7.28
2024-05-09T22:26:06.814Z,7.21
2024-05-09T22:28:35.994Z,7.16
2024-05-09T22:31:06.822Z,7.10
2024-05-09T22:33:37.420Z,7.06
2024-05-09T22:36:10.719Z,7.02
2024-05-09T22:38:41.310Z,6.98
2024-05-09T22:41:12.304Z,6.90
2024-05-09T22:43:42.948Z,6.84
2024-05-09T22:46:13.594Z,6.77
2024-05-09T22:48:44.355Z,6.71
2024-05-09T22:51:15.955Z,6.66
2024-05-09T22:53:46.798Z,6.61
2024-05-09T22:56:26.677Z,6.55
2024-05-09T22:58:57.566Z,6.50
2024-05-09T23:01:28.258Z,6.46
2024-05-09T23:03:59.067Z,6.43
2024-05-09T23:06:29.760Z,6.40
2024-05-09T23:09:00.559Z,6.37
2024-05-09T23:11:31.333Z,6.34
2024-05-09T23:14:02.039Z,6.31
2024-05-09T23:16:32.673Z,6.29
2024-05-09T23:19:03.437Z,6.28
2024-05-09T23:21:38.477Z,6.25
2024-05-09T23:24:09.534Z,6.21
2024-05-09T23:26:42.266Z,6.17
2024-05-09T23:29:13.122Z,6.10
2024-05-09T23:31:43.689Z,6.06
2024-05-09T23:34:15.141Z,6.03
2024-05-09T23:36:45.952Z,5.97
2024-05-09T23:39:16.763Z,5.92
2024-05-09T23:41:47.534Z,5.88
2024-05-09T23:44:18.093Z,5.84
2024-05-09T23:46:48.833Z,5.82
2024-05-09T23:49:19.691Z,5.80
2024-05-09T23:51:50.450Z,5.75
2024-05-09T23:54:21.455Z,5.71
2024-05-09T23:56:52.116Z,5.67
2024-05-09T23:59:22.771Z,5.62
